Time;durP1;ratioP1;P1;durP2;ratioP2;P2;SDS_P1;SDS_P2;PMS_P1;PMS_P2;Temp;Humidity;BMP_temperature;BMP_pressure;BME280_temperature;BME280_humidity;BME280_pressure;Samples;Min_cycle;Max_cycle;Signal;HPM_P1;HPM_P2
2023/06/29 00:00:39;;;;;;;4.35;2.53;;;12.60;99.90;;;;;;5055526;28;20051;-73
2023/06/29 00:03:05;;;;;;;3.90;2.30;;;12.60;99.90;;;;;;5037547;28;20052;-73
2023/06/29 00:05:31;;;;;;;6.18;2.90;;;12.60;99.90;;;;;;5055651;28;20033;-73
2023/06/29 00:07:59;;;;;;;4.68;2.63;;;12.50;99.90;;;;;;5055069;28;20044;-73
2023/06/29 00:10:25;;;;;;;5.03;2.53;;;12.50;99.90;;;;;;5054998;28;20033;-73
2023/06/29 00:12:52;;;;;;;6.78;2.50;;;12.50;99.90;;;;;;5037394;28;20491;-73
2023/06/29 00:15:18;;;;;;;4.25;2.50;;;12.40;99.90;;;;;;5055200;28;20025;-73
2023/06/29 00:17:47;;;;;;;4.25;2.67;;;12.40;99.90;;;;;;5055160;28;20362;-73
2023/06/29 00:20:16;;;;;;;;;;;12.40;99.90;;;;;;5037616;28;20060;-73
2023/06/29 00:22:47;;;;;;;4.05;2.47;;;12.30;99.90;;;;;;5037249;28;20425;-73
2023/06/29 00:25:14;;;;;;;2.55;2.35;;;12.30;99.90;;;;;;5055099;28;20029;-73
2023/06/29 00:27:39;;;;;;;4.40;2.72;;;12.30;99.90;;;;;;5055110;28;20357;-73
2023/06/29 00:30:06;;;;;;;5.18;2.60;;;12.30;99.90;;;;;;5054666;28;20029;-73
2023/06/29 00:32:32;;;;;;;3.05;2.42;;;12.20;99.90;;;;;;5037068;28;20029;-73
2023/06/29 00:34:58;;;;;;;5.03;2.97;;;12.20;99.90;;;;;;5054848;28;20468;-72
2023/06/29 00:37:24;;;;;;;6.45;2.85;;;12.20;99.90;;;;;;5053929;28;20519;-73
2023/06/29 00:39:49;;;;;;;4.57;3.10;;;12.20;99.90;;;;;;5036815;28;20068;-73
2023/06/29 00:42:15;;;;;;;4.10;2.40;;;12.20;99.90;;;;;;5054710;28;20025;-73
2023/06/29 00:44:40;;;;;;;3.20;2.40;;;12.20;99.90;;;;;;5054644;28;20021;-73
2023/06/29 00:47:07;;;;;;;3.13;2.67;;;12.10;99.90;;;;;;5054683;28;20032;-73
2023/06/29 00:49:33;;;;;;;3.50;2.83;;;12.10;99.90;;;;;;5036464;28;20049;-73
2023/06/29 00:51:59;;;;;;;5.15;2.80;;;12.10;99.90;;;;;;5036776;28;20504;-73
2023/06/29 00:54:25;;;;;;;3.42;2.50;;;12.10;99.90;;;;;;5036564;28;20170;-73
2023/06/29 00:56:52;;;;;;;3.65;2.40;;;12.10;99.90;;;;;;5036563;28;20056;-73
2023/06/29 00:59:18;;;;;;;3.30;2.90;;;12.00;99.90;;;;;;5054275;28;20032;-73
2023/06/29 01:01:45;;;;;;;7.80;3.10;;;12.00;99.90;;;;;;5054377;28;20032;-73
2023/06/29 01:04:24;;;;;;;4.57;2.90;;;12.00;99.90;;;;;;5054128;28;20036;-73
2023/06/29 01:06:57;;;;;;;3.55;2.55;;;11.90;99.90;;;;;;5036117;28;20029;-73
2023/06/29 01:09:24;;;;;;;4.75;3.00;;;11.90;99.90;;;;;;5036291;28;20376;-73
2023/06/29 01:11:51;;;;;;;12.93;3.00;;;11.90;99.90;;;;;;5054323;28;20021;-73
2023/06/29 01:14:19;;;;;;;3.63;3.13;;;11.80;99.90;;;;;;5054080;28;20025;-73
2023/06/29 01:16:47;;;;;;;3.63;2.70;;;11.80;99.90;;;;;;5053843;28;20388;-73
2023/06/29 01:19:21;;;;;;;5.30;3.10;;;11.80;99.90;;;;;;5053906;28;20535;-73
2023/06/29 01:22:00;;;;;;;3.83;2.90;;;11.80;99.90;;;;;;5054084;28;20123;-73
2023/06/29 01:24:29;;;;;;;5.60;3.10;;;11.80;99.90;;;;;;5054253;28;20028;-73
2023/06/29 01:26:55;;;;;;;3.92;3.08;;;11.70;99.90;;;;;;5036159;28;20028;-73
2023/06/29 01:29:24;;;;;;;6.00;2.85;;;11.70;99.90;;;;;;5053611;28;20044;-73
2023/06/29 01:31:53;;;;;;;5.82;2.97;;;11.70;99.90;;;;;;5036342;28;20021;-73
2023/06/29 01:34:20;;;;;;;5.22;2.70;;;11.60;99.90;;;;;;5035987;28;20438;-73
2023/06/29 01:36:49;;;;;;;3.10;2.85;;;11.60;99.90;;;;;;5036128;28;20029;-73
2023/06/29 01:39:23;;;;;;;5.47;3.15;;;11.60;99.90;;;;;;5053514;28;20082;-73
2023/06/29 01:41:52;;;;;;;6.03;3.65;;;11.50;99.90;;;;;;5036522;28;20044;-73
2023/06/29 01:44:18;;;;;;;5.40;1.93;;;11.50;99.90;;;;;;5035864;28;20025;-73
2023/06/29 01:46:46;;;;;;;8.13;3.00;;;11.50;99.90;;;;;;5053805;28;20029;-73
2023/06/29 01:49:12;;;;;;;5.75;3.30;;;11.50;99.90;;;;;;5053469;28;20025;-72
2023/06/29 01:51:38;;;;;;;7.45;3.40;;;11.50;99.90;;;;;;5035850;28;20083;-73
2023/06/29 01:54:04;;;;;;;3.47;2.97;;;11.40;99.90;;;;;;5053634;28;20029;-73
2023/06/29 01:56:29;;;;;;;6.10;3.03;;;11.40;99.90;;;;;;5036219;28;20027;-73
2023/06/29 01:58:55;;;;;;;5.40;3.30;;;11.40;99.90;;;;;;5053370;28;20048;-73
2023/06/29 02:01:21;;;;;;;5.25;3.00;;;11.40;99.90;;;;;;5053523;28;20025;-74
2023/06/29 02:03:46;;;;;;;6.18;3.10;;;11.40;99.90;;;;;;5035694;28;20573;-73
2023/06/29 02:06:12;;;;;;;3.30;2.75;;;11.40;99.90;;;;;;5036168;28;20028;-73
2023/06/29 02:08:38;;;;;;;3.92;3.53;;;11.40;99.90;;;;;;5035915;28;20503;-73
2023/06/29 02:11:04;;;;;;;5.55;3.63;;;11.40;99.90;;;;;;5035651;28;20478;-72
2023/06/29 02:13:30;;;;;;;5.88;3.15;;;11.30;99.90;;;;;;5053713;28;20071;-73
2023/06/29 02:15:55;;;;;;;9.05;3.03;;;11.30;99.90;;;;;;5035594;28;20025;-73
2023/06/29 02:18:21;;;;;;;6.53;3.03;;;11.30;99.90;;;;;;5053456;28;20372;-73
2023/06/29 02:20:47;;;;;;;4.50;3.50;;;11.30;99.90;;;;;;5053395;28;20453;-73
2023/06/29 02:23:12;;;;;;;4.68;3.58;;;11.30;99.90;;;;;;5035664;28;20031;-73
2023/06/29 02:25:38;;;;;;;7.45;3.13;;;11.30;99.90;;;;;;5053359;28;20025;-73
2023/06/29 02:28:04;;;;;;;6.20;3.35;;;11.20;99.90;;;;;;5035525;28;20078;-72
2023/06/29 02:30:29;;;;;;;6.25;3.38;;;11.20;99.90;;;;;;5035235;28;20116;-73
2023/06/29 02:32:55;;;;;;;6.82;3.35;;;11.20;99.90;;;;;;5053196;28;20059;-72
2023/06/29 02:35:21;;;;;;;4.30;3.20;;;11.10;99.90;;;;;;5053261;28;20083;-73
2023/06/29 02:37:46;;;;;;;4.15;3.60;;;11.10;99.90;;;;;;5052973;28;20453;-73
2023/06/29 02:40:12;;;;;;;6.65;3.60;;;11.10;99.90;;;;;;5053149;28;20029;-73
2023/06/29 02:42:38;;;;;;;3.97;3.20;;;11.10;99.90;;;;;;5035303;28;20056;-73
2023/06/29 02:45:04;;;;;;;6.05;3.63;;;11.00;99.90;;;;;;5053789;28;20021;-73
2023/06/29 02:47:30;;;;;;;15.02;5.28;;;11.00;99.90;;;;;;5052893;28;20025;-73
2023/06/29 02:49:56;;;;;;;5.40;3.58;;;11.00;99.90;;;;;;5053063;28;20099;-73
2023/06/29 02:52:21;;;;;;;4.18;3.88;;;11.00;99.90;;;;;;5052872;28;20358;-73
2023/06/29 02:54:47;;;;;;;5.35;3.60;;;10.90;99.90;;;;;;5053083;28;20084;-73
2023/06/29 02:57:13;;;;;;;7.38;3.70;;;10.90;99.90;;;;;;5035272;28;20559;-73
2023/06/29 02:59:38;;;;;;;7.47;4.20;;;10.90;99.90;;;;;;5053299;28;20032;-73
2023/06/29 03:02:05;;;;;;;9.00;4.07;;;10.90;99.90;;;;;;5038878;28;20033;-73
2023/06/29 03:04:30;;;;;;;7.47;3.85;;;10.90;99.90;;;;;;5056604;28;20029;-73
2023/06/29 03:06:56;;;;;;;9.15;4.10;;;10.90;99.90;;;;;;5056556;28;20439;-73
2023/06/29 03:09:22;;;;;;;5.88;3.58;;;10.90;99.90;;;;;;5056725;28;20024;-73
2023/06/29 03:11:47;;;;;;;7.57;3.75;;;10.90;99.90;;;;;;5056462;28;20036;-73
2023/06/29 03:14:13;;;;;;;5.03;3.45;;;10.90;99.90;;;;;;5038479;28;20373;-73
2023/06/29 03:16:39;;;;;;;5.13;3.33;;;10.90;99.90;;;;;;5056650;28;20082;-73
2023/06/29 03:19:04;;;;;;;4.22;3.80;;;10.90;99.90;;;;;;5056453;28;20025;-73
2023/06/29 03:21:30;;;;;;;5.65;3.95;;;10.90;99.90;;;;;;5038329;28;20039;-73
2023/06/29 03:23:56;;;;;;;6.35;3.55;;;10.90;99.90;;;;;;5056275;28;20025;-73
2023/06/29 03:26:21;;;;;;;3.75;3.35;;;10.90;99.90;;;;;;5056242;28;20025;-73
2023/06/29 03:28:47;;;;;;;4.68;3.45;;;10.90;99.90;;;;;;5038318;28;20025;-73
2023/06/29 03:31:12;;;;;;;4.05;3.55;;;10.90;99.90;;;;;;5038238;28;20555;-73
2023/06/29 03:33:38;;;;;;;6.45;3.75;;;10.90;99.90;;;;;;5056146;28;20025;-73
2023/06/29 03:36:05;;;;;;;4.93;3.63;;;11.00;99.90;;;;;;5038265;28;20025;-73
2023/06/29 03:38:31;;;;;;;5.82;3.83;;;11.00;99.90;;;;;;5056031;28;20028;-73
2023/06/29 03:40:56;;;;;;;5.60;3.50;;;11.00;99.90;;;;;;5055689;28;20029;-73
2023/06/29 03:43:22;;;;;;;3.67;3.22;;;11.10;99.90;;;;;;5055934;28;20094;-73
2023/06/29 03:45:47;;;;;;;5.88;3.78;;;11.10;99.90;;;;;;5055622;28;20025;-73
2023/06/29 03:48:13;;;;;;;3.65;3.05;;;11.10;99.90;;;;;;5055766;28;20071;-73
2023/06/29 03:50:39;;;;;;;4.45;3.03;;;11.20;99.90;;;;;;5058598;28;20048;-73
2023/06/29 03:53:05;;;;;;;4.40;3.58;;;11.20;99.90;;;;;;5075703;28;20446;-73
2023/06/29 03:55:31;;;;;;;5.07;3.42;;;11.20;99.90;;;;;;5075052;28;20024;-73
2023/06/29 03:57:57;;;;;;;4.40;3.25;;;11.20;99.90;;;;;;5074442;28;20123;-73
2023/06/29 04:00:23;;;;;;;5.45;3.08;;;11.30;99.90;;;;;;5075589;28;20442;-73
2023/06/29 04:02:49;;;;;;;6.50;3.53;;;11.40;99.90;;;;;;5075877;28;20063;-73
2023/06/29 04:05:15;;;;;;;4.18;2.95;;;11.40;99.90;;;;;;5075444;28;20066;-73
2023/06/29 04:07:40;;;;;;;4.88;3.03;;;11.50;99.90;;;;;;5074212;28;20020;-76
2023/06/29 04:10:06;;;;;;;5.25;2.97;;;11.50;99.90;;;;;;5074390;28;20064;-72
2023/06/29 04:12:32;;;;;;;3.50;3.15;;;11.60;99.90;;;;;;5074049;28;20025;-72
2023/06/29 04:14:57;;;;;;;4.50;2.92;;;11.60;99.90;;;;;;5074064;28;20082;-73
2023/06/29 04:17:23;;;;;;;4.78;3.03;;;11.70;99.90;;;;;;5075769;28;20028;-72
2023/06/29 04:19:49;;;;;;;3.25;2.80;;;11.80;99.90;;;;;;5075254;28;20479;-72
2023/06/29 04:22:14;;;;;;;4.35;2.63;;;11.90;99.90;;;;;;5075421;28;20036;-72
2023/06/29 04:24:40;;;;;;;3.20;2.90;;;12.00;99.90;;;;;;5078271;28;20035;-73
2023/06/29 04:27:06;;;;;;;2.90;2.60;;;12.10;99.90;;;;;;5081847;28;20427;-74
2023/06/29 04:29:32;;;;;;;4.25;2.90;;;12.10;99.90;;;;;;5074296;28;20031;-73
2023/06/29 04:31:58;;;;;;;5.28;3.15;;;12.20;99.90;;;;;;5075358;28;20442;-73
2023/06/29 04:34:23;;;;;;;4.20;2.97;;;12.20;99.90;;;;;;5075586;28;20025;-72
2023/06/29 04:36:50;;;;;;;4.50;2.90;;;12.30;99.90;;;;;;5074130;28;20358;-73
2023/06/29 04:39:16;;;;;;;4.13;2.90;;;12.30;99.90;;;;;;5074985;28;20077;-73
2023/06/29 04:41:42;;;;;;;6.25;2.88;;;12.40;99.90;;;;;;5075338;28;20048;-73
2023/06/29 04:44:08;;;;;;;6.00;2.80;;;12.50;99.90;;;;;;5073246;28;20052;-74
2023/06/29 04:46:40;;;;;;;4.97;2.70;;;12.50;99.90;;;;;;5074617;28;20024;-74
2023/06/29 04:49:06;;;;;;;3.72;3.03;;;12.60;99.90;;;;;;5073411;28;20055;-74
2023/06/29 04:51:36;;;;;;;2.55;2.10;;;12.60;99.90;;;;;;5055194;28;20055;-74
2023/06/29 04:54:07;;;;;;;3.22;2.97;;;12.70;99.90;;;;;;5036613;28;20033;-74
2023/06/29 04:56:33;;;;;;;5.75;3.08;;;12.70;99.90;;;;;;5036530;28;20167;-74
2023/06/29 04:58:59;;;;;;;3.28;2.95;;;12.80;99.90;;;;;;5054624;28;20049;-74
2023/06/29 05:01:24;;;;;;;5.55;3.13;;;12.80;99.90;;;;;;5053945;28;20150;-74
2023/06/29 05:03:50;;;;;;;3.53;2.92;;;12.90;99.90;;;;;;5053980;28;20036;-78
2023/06/29 05:06:16;;;;;;;5.93;2.75;;;13.00;99.90;;;;;;5036419;28;20021;-74
2023/06/29 05:08:41;;;;;;;4.43;3.10;;;13.10;99.90;;;;;;5054761;28;20074;-74
2023/06/29 05:11:07;;;;;;;3.88;2.85;;;13.30;99.90;;;;;;5039904;28;20039;-74
2023/06/29 05:13:35;;;;;;;5.68;2.85;;;13.40;99.90;;;;;;5056530;28;20365;-74
2023/06/29 05:16:02;;;;;;;6.00;3.37;;;13.50;99.90;;;;;;5040083;28;20051;-74
2023/06/29 05:18:28;;;;;;;4.50;2.85;;;13.60;99.90;;;;;;5046202;28;20330;-74
2023/06/29 05:20:54;;;;;;;3.72;2.97;;;13.70;99.90;;;;;;5036141;28;20485;-74
2023/06/29 05:23:19;;;;;;;3.80;2.90;;;13.80;99.90;;;;;;5053184;28;20431;-74
2023/06/29 05:25:45;;;;;;;2.83;2.53;;;13.90;99.90;;;;;;5036675;28;20116;-74
2023/06/29 05:28:11;;;;;;;3.80;3.25;;;14.10;99.90;;;;;;5053924;28;20457;-75
2023/06/29 05:30:37;;;;;;;5.57;3.50;;;14.20;99.90;;;;;;5054111;28;20060;-74
2023/06/29 05:33:04;;;;;;;3.13;2.83;;;14.40;99.90;;;;;;5053507;28;20441;-74
2023/06/29 05:35:31;;;;;;;3.55;2.33;;;14.50;99.90;;;;;;5053799;28;20484;-74
2023/06/29 05:37:57;;;;;;;4.95;2.60;;;14.70;99.90;;;;;;5036386;28;20083;-74
2023/06/29 05:40:22;;;;;;;4.95;2.30;;;14.90;99.90;;;;;;5035811;28;20037;-75
2023/06/29 05:42:48;;;;;;;3.55;2.40;;;15.00;99.90;;;;;;5053335;28;20350;-75
2023/06/29 05:45:14;;;;;;;6.53;2.65;;;15.20;99.90;;;;;;5053516;28;20029;-75
2023/06/29 05:47:39;;;;;;;2.50;2.30;;;15.30;99.90;;;;;;5035640;28;20572;-75
2023/06/29 05:50:06;;;;;;;4.78;2.58;;;15.50;99.90;;;;;;5053550;28;20061;-75
2023/06/29 05:52:33;;;;;;;6.15;2.30;;;15.60;99.90;;;;;;5053866;28;20107;-75
2023/06/29 05:54:59;;;;;;;5.60;1.85;;;15.80;99.90;;;;;;5035624;28;20595;-75
2023/06/29 05:57:25;;;;;;;3.78;1.95;;;15.90;99.90;;;;;;5053727;28;20461;-75
2023/06/29 05:59:51;;;;;;;2.90;1.75;;;16.10;99.90;;;;;;5034994;28;20029;-75
2023/06/29 06:02:16;;;;;;;4.95;2.40;;;16.30;99.90;;;;;;5053573;28;20028;-75
2023/06/29 06:04:42;;;;;;;4.82;1.88;;;16.40;99.90;;;;;;5035491;28;20032;-74
2023/06/29 06:07:08;;;;;;;6.38;2.00;;;16.60;99.90;;;;;;5053440;28;20025;-75
2023/06/29 06:09:33;;;;;;;2.85;1.88;;;16.80;99.90;;;;;;5053950;28;20068;-75
2023/06/29 06:11:59;;;;;;;4.55;2.03;;;16.90;99.90;;;;;;5053406;28;20108;-74
2023/06/29 06:14:25;;;;;;;1.65;1.55;;;17.10;99.90;;;;;;5035483;28;20029;-75
2023/06/29 06:16:50;;;;;;;5.72;2.03;;;17.30;99.90;;;;;;5035653;28;20032;-75
2023/06/29 06:19:16;;;;;;;3.33;1.77;;;17.50;99.90;;;;;;5053649;28;20029;-74
2023/06/29 06:21:42;;;;;;;3.58;2.10;;;17.80;99.90;;;;;;5035260;28;20392;-74
2023/06/29 06:24:07;;;;;;;3.65;1.52;;;18.40;99.90;;;;;;5053299;28;20082;-74
2023/06/29 06:26:33;;;;;;;2.22;1.35;;;19.00;99.90;;;;;;5053324;28;20029;-75
2023/06/29 06:28:58;;;;;;;3.67;1.23;;;19.60;99.90;;;;;;5035489;28;20029;-75
2023/06/29 06:31:25;;;;;;;3.70;1.38;;;20.00;99.90;;;;;;5052909;28;20465;-74
2023/06/29 06:33:56;;;;;;;1.55;1.05;;;20.50;99.90;;;;;;5035406;28;20110;-74
2023/06/29 06:36:22;;;;;;;1.00;0.95;;;20.70;98.20;;;;;;5056453;28;20024;-74
2023/06/29 06:38:48;;;;;;;3.08;1.58;;;20.80;96.40;;;;;;5057016;28;20043;-74
2023/06/29 06:41:14;;;;;;;4.10;1.10;;;21.00;95.40;;;;;;5038969;28;20468;-75
2023/06/29 06:43:40;;;;;;;1.17;0.95;;;21.20;95.80;;;;;;5039103;28;20025;-75
2023/06/29 06:46:05;;;;;;;2.28;0.93;;;21.60;94.70;;;;;;5056674;28;20075;-75
2023/06/29 06:48:31;;;;;;;4.78;1.35;;;21.90;93.60;;;;;;5056599;28;20036;-75
2023/06/29 06:50:56;;;;;;;1.90;1.08;;;22.10;92.40;;;;;;5064510;28;20063;-74
2023/06/29 06:53:22;;;;;;;4.30;0.98;;;22.30;91.40;;;;;;5077044;28;20021;-75
2023/06/29 06:55:47;;;;;;;2.53;1.30;;;22.50;91.10;;;;;;5075608;28;20520;-74
2023/06/29 06:58:13;;;;;;;3.45;1.20;;;22.60;90.40;;;;;;5076363;28;20032;-74
2023/06/29 07:00:39;;;;;;;4.20;1.05;;;22.70;88.60;;;;;;5076766;28;20041;-74
2023/06/29 07:03:04;;;;;;;1.67;0.82;;;22.70;86.40;;;;;;5076408;28;20388;-75
2023/06/29 07:05:30;;;;;;;3.10;0.93;;;22.80;84.80;;;;;;5075280;28;20032;-74
2023/06/29 07:07:56;;;;;;;6.13;1.40;;;22.80;84.00;;;;;;5075337;28;20036;-75
2023/06/29 07:10:21;;;;;;;3.10;0.93;;;23.00;84.30;;;;;;5076493;28;20040;-75
2023/06/29 07:12:47;;;;;;;3.30;1.15;;;22.80;81.40;;;;;;5076920;28;20592;-74
2023/06/29 07:15:12;;;;;;;3.15;0.75;;;22.90;83.20;;;;;;5076602;28;20021;-75
2023/06/29 07:17:38;;;;;;;3.22;1.20;;;23.00;82.10;;;;;;5076316;28;20046;-74
2023/06/29 07:20:04;;;;;;;3.63;1.05;;;23.30;81.30;;;;;;5076209;28;20098;-75
2023/06/29 07:22:30;;;;;;;1.88;0.90;;;23.50;78.80;;;;;;5074987;28;20024;-74
2023/06/29 07:24:57;;;;;;;1.77;0.90;;;23.50;77.90;;;;;;5076472;28;20031;-74
2023/06/29 07:27:23;;;;;;;4.60;1.17;;;23.60;78.80;;;;;;5074809;28;20496;-74
2023/06/29 07:29:48;;;;;;;3.25;1.25;;;24.00;76.40;;;;;;5076108;28;20028;-74
2023/06/29 07:32:14;;;;;;;1.58;0.75;;;24.00;75.30;;;;;;5076056;28;20028;-75
2023/06/29 07:34:39;;;;;;;4.65;1.15;;;24.10;75.90;;;;;;5076208;28;20025;-75
2023/06/29 07:37:05;;;;;;;2.83;1.23;;;24.10;73.80;;;;;;5074709;28;20186;-75
2023/06/29 07:39:33;;;;;;;2.35;0.95;;;24.50;74.10;;;;;;5074605;28;20032;-75
2023/06/29 07:41:58;;;;;;;3.50;1.13;;;24.90;71.90;;;;;;5076218;28;20376;-74
2023/06/29 07:44:24;;;;;;;2.95;1.02;;;25.20;70.60;;;;;;5074474;28;20025;-75
2023/06/29 07:46:50;;;;;;;4.30;0.75;;;25.40;70.70;;;;;;5075226;28;20020;-75
2023/06/29 07:49:15;;;;;;;2.70;0.90;;;25.70;70.50;;;;;;5075105;28;20031;-75
2023/06/29 07:51:41;;;;;;;1.63;1.00;;;26.20;69.40;;;;;;5055682;28;20075;-74
2023/06/29 07:54:08;;;;;;;2.58;1.02;;;26.30;66.40;;;;;;5055684;28;20021;-75
2023/06/29 07:56:34;;;;;;;1.88;0.90;;;26.40;64.90;;;;;;5037747;28;20025;-74
2023/06/29 07:58:59;;;;;;;4.38;1.35;;;26.30;65.80;;;;;;5037747;28;20162;-75
2023/06/29 08:01:25;;;;;;;2.95;1.00;;;26.50;66.00;;;;;;5055219;28;20436;-74
2023/06/29 08:03:51;;;;;;;4.90;0.90;;;26.40;63.00;;;;;;5055500;28;20112;-74
2023/06/29 08:06:17;;;;;;;3.75;0.82;;;26.20;61.60;;;;;;5038122;28;20461;-74
2023/06/29 08:08:42;;;;;;;4.53;0.98;;;26.00;61.70;;;;;;5055849;28;20033;-75
2023/06/29 08:11:14;;;;;;;3.28;1.10;;;25.90;62.70;;;;;;5055727;28;20032;-74
2023/06/29 08:13:41;;;;;;;2.80;0.85;;;26.00;62.30;;;;;;5037880;28;20068;-75
2023/06/29 08:16:06;;;;;;;3.22;1.00;;;26.60;62.70;;;;;;5054869;28;20457;-75
2023/06/29 08:18:32;;;;;;;3.28;0.95;;;27.00;59.40;;;;;;5037380;28;20035;-74
2023/06/29 08:20:58;;;;;;;1.92;1.05;;;27.10;59.60;;;;;;5055066;28;20068;-75
2023/06/29 08:23:23;;;;;;;4.57;1.10;;;27.50;57.50;;;;;;5055205;28;20095;-75
2023/06/29 08:25:49;;;;;;;1.85;0.85;;;27.80;58.10;;;;;;5036884;28;20149;-75
2023/06/29 08:28:15;;;;;;;2.50;0.80;;;27.90;54.90;;;;;;5055273;28;20021;-75
2023/06/29 08:30:40;;;;;;;3.50;0.70;;;27.90;54.30;;;;;;5054960;28;20028;-75
2023/06/29 08:33:06;;;;;;;4.13;1.00;;;27.70;54.60;;;;;;5037014;28;20025;-75
2023/06/29 08:35:31;;;;;;;3.42;1.23;;;27.70;54.10;;;;;;5055143;28;20032;-75
2023/06/29 08:37:57;;;;;;;3.05;0.98;;;27.80;55.30;;;;;;5054616;28;20097;-75
2023/06/29 08:40:25;;;;;;;2.22;0.90;;;28.10;54.40;;;;;;5054718;28;20033;-75
2023/06/29 08:42:51;;;;;;;2.17;1.10;;;28.10;53.60;;;;;;5036848;28;20025;-75
2023/06/29 08:45:17;;;;;;;3.25;0.63;;;28.30;53.00;;;;;;5054331;28;20033;-76
2023/06/29 08:47:44;;;;;;;1.38;0.80;;;28.20;53.10;;;;;;5037313;28;20032;-75
2023/06/29 08:50:10;;;;;;;3.00;0.90;;;27.90;53.00;;;;;;5054491;28;20056;-75
2023/06/29 08:52:37;;;;;;;2.63;0.75;;;;;;;;;;5054502;28;20025;-76
2023/06/29 08:55:03;;;;;;;1.45;0.90;;;28.00;54.00;;;;;;5054444;28;20169;-75
2023/06/29 08:57:31;;;;;;;2.13;1.10;;;27.90;53.30;;;;;;5035808;28;20036;-75
2023/06/29 08:59:58;;;;;;;2.30;1.00;;;27.90;52.80;;;;;;5036488;28;20037;-75
2023/06/29 09:02:24;;;;;;;1.88;1.25;;;27.70;53.70;;;;;;5037282;28;20025;-75
2023/06/29 09:04:50;;;;;;;1.75;0.80;;;28.00;52.90;;;;;;5054805;28;20108;-75
2023/06/29 09:07:16;;;;;;;4.10;1.15;;;28.20;52.80;;;;;;5054269;28;20036;-75
2023/06/29 09:09:43;;;;;;;3.58;1.17;;;29.00;52.20;;;;;;5036720;28;20032;-75
2023/06/29 09:12:11;;;;;;;1.23;0.60;;;29.40;50.60;;;;;;5036442;28;20400;-76
2023/06/29 09:14:44;;;;;;;2.53;0.77;;;29.50;49.70;;;;;;5036244;28;20036;-76
2023/06/29 09:17:15;;;;;;;1.92;1.05;;;29.50;50.30;;;;;;5054177;28;20021;-75
2023/06/29 09:19:49;;;;;;;0.77;0.60;;;29.80;49.50;;;;;;5053908;28;20033;-76
2023/06/29 09:22:15;;;;;;;2.67;0.90;;;29.80;46.80;;;;;;5054048;28;20457;-75
2023/06/29 09:24:41;;;;;;;1.40;0.60;;;29.60;46.40;;;;;;5036297;28;20036;-76
2023/06/29 09:27:10;;;;;;;1.17;0.73;;;29.50;48.20;;;;;;5035711;28;20060;-75
2023/06/29 09:29:40;;;;;;;1.23;0.88;;;29.80;46.90;;;;;;5036030;28;20025;-76
2023/06/29 09:32:12;;;;;;;1.88;0.90;;;29.70;46.70;;;;;;5053886;28;20538;-76
2023/06/29 09:34:47;;;;;;;1.10;0.90;;;29.60;48.30;;;;;;5054159;28;20033;-76
2023/06/29 09:37:15;;;;;;;2.00;1.00;;;29.10;47.90;;;;;;5036091;28;20025;-75
2023/06/29 09:39:56;;;;;;;3.35;1.02;;;29.20;48.30;;;;;;5035849;28;20021;-75
2023/06/29 09:42:23;;;;;;;4.45;0.90;;;29.80;47.40;;;;;;5053473;28;20029;-76
2023/06/29 09:44:49;;;;;;;3.78;0.82;;;30.50;46.80;;;;;;5036075;28;20036;-75
2023/06/29 09:47:14;;;;;;;6.05;1.05;;;30.60;46.00;;;;;;5053929;28;20025;-75
2023/06/29 09:49:49;;;;;;;5.40;0.80;;;30.10;45.00;;;;;;5053535;28;20380;-76
2023/06/29 09:52:16;;;;;;;2.95;0.63;;;30.00;45.50;;;;;;5035712;28;20454;-75
2023/06/29 09:54:43;;;;;;;2.58;0.70;;;30.00;45.00;;;;;;5036096;28;20037;-75
2023/06/29 09:57:10;;;;;;;3.53;0.88;;;29.60;45.50;;;;;;5053411;28;20044;-75
2023/06/29 09:59:40;;;;;;;1.10;0.90;;;29.10;45.70;;;;;;5053495;28;20025;-75
2023/06/29 10:02:08;;;;;;;1.38;0.82;;;29.40;46.70;;;;;;5035625;28;20025;-75
2023/06/29 10:04:35;;;;;;;1.27;0.85;;;29.70;45.60;;;;;;5035790;28;20082;-75
2023/06/29 10:07:08;;;;;;;3.03;0.85;;;30.00;45.60;;;;;;5035414;28;20530;-75
2023/06/29 10:09:40;;;;;;;2.42;0.93;;;30.10;45.10;;;;;;5037631;28;20470;-75
2023/06/29 10:12:10;;;;;;;0.95;0.68;;;30.40;45.40;;;;;;5057782;28;20350;-75
2023/06/29 10:14:42;;;;;;;2.08;0.70;;;30.50;44.50;;;;;;5039661;28;20025;-75
2023/06/29 10:17:37;;;;;;;1.95;0.85;;;29.80;42.30;;;;;;5057407;28;20024;-75
2023/06/29 10:20:06;;;;;;;2.80;0.88;;;29.80;45.20;;;;;;5057368;28;20039;-75
2023/06/29 10:22:35;;;;;;;1.92;0.80;;;29.50;44.00;;;;;;5057398;28;20177;-75
2023/06/29 10:25:03;;;;;;;;;;;29.60;44.40;;;;;;5057694;28;20096;-75
2023/06/29 10:27:29;;;;;;;;;;;29.50;44.80;;;;;;5057687;28;19905;-75
2023/06/29 10:29:55;;;;;;;1.23;0.90;;;29.50;45.40;;;;;;5056949;28;20276;-75
2023/06/29 10:32:38;;;;;;;1.42;0.90;;;30.00;45.00;;;;;;5039344;28;20036;-74
2023/06/29 10:35:11;;;;;;;3.67;0.80;;;30.50;44.90;;;;;;5039278;28;20108;-75
2023/06/29 10:37:50;;;;;;;2.30;1.10;;;31.30;44.30;;;;;;5039621;28;20087;-75
2023/06/29 10:40:17;;;;;;;9.07;1.08;;;31.40;44.00;;;;;;5056693;28;20139;-75
2023/06/29 10:42:43;;;;;;;2.45;0.90;;;31.90;44.00;;;;;;5056972;28;20029;-75
2023/06/29 10:45:21;;;;;;;5.10;0.90;;;32.50;42.50;;;;;;5057366;28;20025;-75
2023/06/29 10:47:55;;;;;;;5.35;1.08;;;32.50;42.30;;;;;;5057154;28;20021;-75
2023/06/29 10:50:44;;;;;;;3.20;1.23;;;32.20;41.70;;;;;;5056843;28;20138;-76
2023/06/29 10:53:12;;;;;;;2.53;0.80;;;31.60;41.50;;;;;;5057120;28;20358;-76
2023/06/29 10:55:38;;;;;;;1.58;0.70;;;31.60;42.10;;;;;;5038804;28;20029;-76
2023/06/29 10:58:13;;;;;;;5.43;1.15;;;31.30;41.70;;;;;;5056673;28;20027;-76
2023/06/29 11:00:39;;;;;;;3.50;0.93;;;31.80;41.30;;;;;;5056558;28;20049;-76
2023/06/29 11:03:05;;;;;;;3.53;0.80;;;31.90;40.60;;;;;;5056796;28;20100;-76
2023/06/29 11:05:33;;;;;;;1.92;0.60;;;32.20;42.00;;;;;;5038680;28;20028;-75
2023/06/29 11:07:58;;;;;;;3.15;0.93;;;32.80;41.10;;;;;;5056926;28;20032;-75
2023/06/29 11:10:24;;;;;;;1.15;0.75;;;33.00;39.90;;;;;;5056087;28;20040;-76
2023/06/29 11:12:54;;;;;;;1.42;0.80;;;33.20;39.40;;;;;;5056105;28;20027;-75
2023/06/29 11:15:20;;;;;;;2.80;1.02;;;32.30;39.00;;;;;;5038506;28;20120;-75
2023/06/29 11:17:48;;;;;;;3.28;0.82;;;31.90;41.20;;;;;;5056736;28;20056;-75
2023/06/29 11:20:15;;;;;;;1.70;0.93;;;32.10;40.80;;;;;;5055602;28;20037;-75
2023/06/29 11:22:42;;;;;;;4.53;1.35;;;32.50;40.90;;;;;;5055998;28;20033;-75
2023/06/29 11:25:12;;;;;;;2.28;0.95;;;33.10;38.90;;;;;;5038231;28;20389;-76
2023/06/29 11:27:38;;;;;;;2.92;0.95;;;33.30;38.90;;;;;;5056246;28;20046;-76
2023/06/29 11:30:07;;;;;;;1.75;0.80;;;33.90;39.80;;;;;;5056258;28;20028;-75
2023/06/29 11:32:34;;;;;;;3.03;1.20;;;34.20;38.60;;;;;;5056081;28;20027;-76
2023/06/29 11:35:01;;;;;;;1.85;0.88;;;33.50;37.80;;;;;;5056026;28;20032;-75
2023/06/29 11:37:30;;;;;;;1.48;0.80;;;33.50;38.70;;;;;;5056022;28;20086;-75
2023/06/29 11:39:56;;;;;;;1.30;0.90;;;33.70;37.90;;;;;;5038027;28;20036;-75
2023/06/29 11:42:24;;;;;;;1.05;0.65;;;33.80;36.70;;;;;;5055470;28;20133;-75
2023/06/29 11:44:59;;;;;;;3.42;0.88;;;33.50;37.80;;;;;;5056019;28;20036;-76
2023/06/29 11:47:25;;;;;;;1.05;0.75;;;33.30;37.80;;;;;;5055964;28;20593;-75
2023/06/29 11:49:50;;;;;;;1.08;0.80;;;33.40;39.20;;;;;;5055497;28;20068;-75
2023/06/29 11:52:16;;;;;;;2.42;0.70;;;34.10;38.10;;;;;;5055497;28;20447;-75
2023/06/29 11:54:43;;;;;;;3.40;1.00;;;34.30;35.50;;;;;;5055603;28;20028;-75
2023/06/29 11:57:08;;;;;;;1.35;0.77;;;33.50;35.80;;;;;;5038048;28;20086;-75
2023/06/29 11:59:39;;;;;;;1.60;1.00;;;32.90;37.30;;;;;;5055618;28;20029;-75
2023/06/29 12:02:05;;;;;;;2.15;0.70;;;32.50;37.50;;;;;;5038526;28;20506;-75
2023/06/29 12:04:30;;;;;;;1.10;0.68;;;33.00;36.40;;;;;;5055232;28;20174;-75
2023/06/29 12:06:56;;;;;;;2.30;0.98;;;33.40;36.50;;;;;;5055477;28;20036;-75
2023/06/29 12:09:32;;;;;;;4.22;1.02;;;33.00;36.10;;;;;;5055604;28;20064;-75
2023/06/29 12:11:59;;;;;;;1.83;0.90;;;33.00;37.90;;;;;;5055342;28;20036;-75
2023/06/29 12:14:35;;;;;;;2.22;0.90;;;32.50;37.10;;;;;;5055032;28;20377;-75
2023/06/29 12:17:01;;;;;;;1.75;0.77;;;32.80;36.30;;;;;;5037372;28;20024;-75
2023/06/29 12:19:31;;;;;;;1.38;0.70;;;33.60;36.00;;;;;;5037465;28;20025;-75
2023/06/29 12:21:57;;;;;;;3.60;0.80;;;34.10;36.00;;;;;;5037017;28;20040;-75
2023/06/29 12:24:25;;;;;;;0.95;0.90;;;34.50;36.40;;;;;;5037165;28;20021;-75
2023/06/29 12:26:51;;;;;;;1.67;0.90;;;34.20;35.80;;;;;;5054943;28;20028;-75
2023/06/29 12:29:16;;;;;;;1.25;0.82;;;34.30;35.90;;;;;;5054994;28;20381;-75
2023/06/29 12:31:42;;;;;;;4.18;0.90;;;34.10;35.70;;;;;;5036504;28;20440;-76
2023/06/29 12:34:07;;;;;;;1.25;0.88;;;34.40;35.50;;;;;;5054437;28;20504;-75
2023/06/29 12:36:33;;;;;;;1.25;0.90;;;34.70;36.60;;;;;;5036980;28;20527;-75
2023/06/29 12:38:59;;;;;;;1.90;0.73;;;35.50;35.80;;;;;;5054816;28;20480;-75
2023/06/29 12:41:24;;;;;;;2.22;1.00;;;35.60;34.50;;;;;;5054674;28;20119;-76
2023/06/29 12:43:50;;;;;;;3.25;1.15;;;35.70;34.50;;;;;;5054741;28;20029;-76
2023/06/29 12:46:16;;;;;;;3.95;1.35;;;35.90;33.80;;;;;;5054713;28;20021;-76